Time;durP1;ratioP1;P1;durP2;ratioP2;P2;SDS_P1;SDS_P2;PMS_P1;PMS_P2;Temp;Humidity;BMP_temperature;BMP_pressure;BME280_temperature;BME280_humidity;BME280_pressure;Samples;Min_cycle;Max_cycle;Signal;HPM_P1;HPM_P2
2021/03/24 00:01:56;;;;;;;11.65;4.25;;;9.40;99.90;;;;;;5017495;28;20053;-88
2021/03/24 00:04:23;;;;;;;11.27;4.20;;;9.30;99.90;;;;;;5017674;28;20132;-87
2021/03/24 00:06:50;;;;;;;10.18;3.90;;;9.30;99.90;;;;;;5017624;28;20049;-87
2021/03/24 00:09:18;;;;;;;11.63;4.13;;;9.30;99.90;;;;;;5017340;28;20067;-87
2021/03/24 00:11:44;;;;;;;8.98;4.50;;;9.30;99.90;;;;;;5017213;28;20111;-88
2021/03/24 00:14:11;;;;;;;9.20;4.15;;;9.40;99.90;;;;;;5017263;28;20092;-88
2021/03/24 00:16:37;;;;;;;16.30;4.18;;;9.30;99.90;;;;;;5017234;28;20421;-88
2021/03/24 00:19:04;;;;;;;9.90;4.50;;;9.30;99.90;;;;;;5017156;28;20064;-88
2021/03/24 00:21:30;;;;;;;12.00;4.07;;;9.30;99.90;;;;;;5016831;28;20060;-88
2021/03/24 00:23:58;;;;;;;11.80;4.70;;;9.30;99.90;;;;;;5017151;28;20054;-86
2021/03/24 00:26:25;;;;;;;16.00;5.22;;;9.30;99.90;;;;;;5017035;28;20052;-88
2021/03/24 00:28:53;;;;;;;8.88;4.43;;;9.30;99.90;;;;;;5016928;28;20368;-87
2021/03/24 00:31:19;;;;;;;6.53;4.03;;;9.30;99.90;;;;;;5017099;28;20054;-88
2021/03/24 00:33:46;;;;;;;12.30;3.85;;;9.30;99.90;;;;;;5016959;28;20087;-88
2021/03/24 00:36:12;;;;;;;9.95;3.47;;;9.30;99.90;;;;;;5016737;28;20072;-88
2021/03/24 00:38:39;;;;;;;9.65;4.28;;;9.30;99.90;;;;;;5016841;28;20054;-88
2021/03/24 00:41:06;;;;;;;10.00;3.70;;;9.30;99.90;;;;;;5016600;28;20521;-88
2021/03/24 00:43:33;;;;;;;8.10;4.10;;;9.30;99.90;;;;;;5017049;28;20080;-87
2021/03/24 00:46:00;;;;;;;9.73;3.78;;;9.30;99.90;;;;;;5016816;28;20470;-88
2021/03/24 00:48:28;;;;;;;7.90;3.92;;;9.30;99.90;;;;;;5017113;28;20107;-88
2021/03/24 00:50:55;;;;;;;11.88;4.72;;;9.30;99.90;;;;;;5016460;28;20379;-87
2021/03/24 00:53:22;;;;;;;10.57;3.70;;;9.30;99.90;;;;;;5016362;28;20054;-87
2021/03/24 00:55:48;;;;;;;10.10;3.78;;;9.30;99.90;;;;;;5016753;28;20111;-88
2021/03/24 00:58:16;;;;;;;7.63;4.40;;;9.30;99.90;;;;;;5016528;28;20192;-88
2021/03/24 01:00:43;;;;;;;6.55;3.45;;;9.30;99.90;;;;;;5016741;28;20049;-87
2021/03/24 01:03:10;;;;;;;9.43;4.03;;;9.30;99.90;;;;;;5016824;28;20050;-87
2021/03/24 01:05:36;;;;;;;12.18;4.05;;;9.30;99.90;;;;;;5016202;28;20057;-87
2021/03/24 01:08:05;;;;;;;13.40;4.30;;;9.30;99.90;;;;;;5016370;28;20049;-87
2021/03/24 01:10:33;;;;;;;7.60;3.63;;;9.30;99.90;;;;;;5016314;28;20049;-87
2021/03/24 01:13:00;;;;;;;12.10;4.05;;;9.30;99.90;;;;;;5016113;28;20072;-87
2021/03/24 01:15:27;;;;;;;13.27;5.20;;;9.30;99.90;;;;;;5016523;28;20050;-87
2021/03/24 01:17:54;;;;;;;8.60;3.80;;;9.30;99.90;;;;;;5015979;28;20058;-87
2021/03/24 01:20:21;;;;;;;11.18;3.53;;;9.30;99.90;;;;;;5015996;28;20111;-88
2021/03/24 01:22:47;;;;;;;12.73;4.50;;;9.30;99.90;;;;;;5015759;28;20058;-87
2021/03/24 01:25:15;;;;;;;7.82;3.05;;;9.30;99.90;;;;;;5016165;28;20446;-87
2021/03/24 01:27:41;;;;;;;10.60;4.95;;;9.30;99.90;;;;;;5015884;28;20046;-88
2021/03/24 01:30:09;;;;;;;6.50;3.00;;;9.30;99.90;;;;;;5015878;28;20068;-88
2021/03/24 01:32:36;;;;;;;9.85;3.22;;;9.30;99.90;;;;;;5015866;28;20072;-88
2021/03/24 01:35:04;;;;;;;10.32;3.67;;;9.30;99.90;;;;;;5015273;28;20050;-88
2021/03/24 01:37:30;;;;;;;7.03;4.25;;;9.30;99.90;;;;;;5015646;28;20060;-88
2021/03/24 01:39:57;;;;;;;9.15;4.50;;;9.30;99.90;;;;;;5015588;28;20062;-87
2021/03/24 01:42:23;;;;;;;10.00;3.20;;;9.30;99.90;;;;;;5015761;28;20390;-88
2021/03/24 01:45:07;;;;;;;6.20;4.07;;;9.30;99.90;;;;;;5015447;28;20050;-88
2021/03/24 01:47:33;;;;;;;8.43;3.92;;;9.30;99.90;;;;;;5015620;28;20050;-88
2021/03/24 01:50:01;;;;;;;11.48;3.63;;;9.30;99.90;;;;;;5015656;28;20417;-88
2021/03/24 01:52:27;;;;;;;10.70;4.10;;;9.30;99.90;;;;;;5015603;28;20054;-88
2021/03/24 01:54:54;;;;;;;10.23;4.20;;;9.30;99.90;;;;;;5015364;28;20060;-88
2021/03/24 01:57:24;;;;;;;10.35;3.10;;;9.30;99.90;;;;;;5015363;28;20454;-88
2021/03/24 01:59:52;;;;;;;10.60;4.07;;;9.30;99.90;;;;;;5015344;28;20061;-88
2021/03/24 02:02:19;;;;;;;19.73;4.25;;;9.30;99.90;;;;;;5015279;28;20391;-88
2021/03/24 02:04:48;;;;;;;9.07;3.83;;;9.30;99.90;;;;;;5015230;28;20107;-87
2021/03/24 02:07:16;;;;;;;10.30;3.63;;;9.30;99.90;;;;;;5015134;28;20107;-88
2021/03/24 02:09:45;;;;;;;10.85;3.35;;;9.30;99.90;;;;;;5015229;28;20192;-88
2021/03/24 02:12:13;;;;;;;10.05;3.65;;;9.30;99.90;;;;;;5015086;28;20111;-88
2021/03/24 02:14:42;;;;;;;10.30;3.38;;;9.30;99.90;;;;;;5015362;28;20050;-88
2021/03/24 02:17:09;;;;;;;5.85;3.70;;;9.30;99.90;;;;;;5014818;28;20525;-88
2021/03/24 02:19:55;;;;;;;10.82;3.65;;;9.30;99.90;;;;;;4995752;28;20054;-87
2021/03/24 02:22:26;;;;;;;8.00;3.55;;;9.30;99.90;;;;;;4994464;28;20092;-87
2021/03/24 02:24:58;;;;;;;11.75;3.28;;;9.30;99.90;;;;;;4995347;28;20050;-86
2021/03/24 02:27:26;;;;;;;9.65;4.13;;;9.30;99.90;;;;;;4995591;28;20057;-88
2021/03/24 02:29:55;;;;;;;15.60;3.80;;;9.30;99.90;;;;;;4995236;28;20526;-87
2021/03/24 02:32:23;;;;;;;18.05;4.22;;;9.30;99.90;;;;;;4995391;28;20057;-87
2021/03/24 02:34:50;;;;;;;8.60;3.83;;;9.30;99.90;;;;;;4995076;28;20057;-85
2021/03/24 02:37:16;;;;;;;12.27;3.88;;;9.20;99.90;;;;;;4994983;28;20042;-85
2021/03/24 02:39:43;;;;;;;8.45;3.58;;;9.20;99.90;;;;;;4994983;28;20372;-85
2021/03/24 02:42:11;;;;;;;9.52;4.90;;;9.20;99.90;;;;;;4995058;28;20129;-86
2021/03/24 02:44:39;;;;;;;10.55;4.50;;;9.20;99.90;;;;;;4995103;28;20482;-84
2021/03/24 02:47:06;;;;;;;10.63;3.65;;;9.20;99.90;;;;;;4994237;28;20387;-86
2021/03/24 02:49:32;;;;;;;11.15;3.55;;;9.20;99.90;;;;;;4994960;28;20137;-87
2021/03/24 02:51:59;;;;;;;8.98;4.38;;;9.20;99.90;;;;;;4994824;28;20487;-84
2021/03/24 02:54:27;;;;;;;10.00;3.30;;;9.20;99.90;;;;;;4995303;28;20124;-84
2021/03/24 02:56:53;;;;;;;7.50;4.22;;;9.20;99.90;;;;;;4995128;28;20371;-83
2021/03/24 02:59:20;;;;;;;8.45;3.78;;;9.10;99.90;;;;;;4995073;28;20050;-84
2021/03/24 03:01:51;;;;;;;8.23;4.28;;;9.00;99.90;;;;;;4994856;28;20584;-83
2021/03/24 03:04:20;;;;;;;9.00;3.88;;;8.90;99.90;;;;;;4995070;28;20120;-82
2021/03/24 03:06:47;;;;;;;10.15;3.47;;;8.90;99.90;;;;;;4994810;28;20065;-82
2021/03/24 03:09:18;;;;;;;4.75;2.50;;;8.70;99.90;;;;;;4994601;28;20478;-81
2021/03/24 03:11:49;;;;;;;5.38;1.67;;;8.70;99.90;;;;;;4994654;28;20583;-80
2021/03/24 03:14:18;;;;;;;6.25;1.88;;;8.60;99.90;;;;;;4995174;28;20115;-80
2021/03/24 03:16:45;;;;;;;3.08;1.10;;;8.60;99.90;;;;;;4994607;28;20057;-81
2021/03/24 03:19:17;;;;;;;3.50;1.00;;;8.50;99.90;;;;;;5010986;28;20068;-81
2021/03/24 03:21:45;;;;;;;1.95;1.05;;;8.40;99.90;;;;;;5014427;28;20053;-80
2021/03/24 03:24:12;;;;;;;3.60;0.90;;;8.40;99.90;;;;;;5014275;28;20056;-80
2021/03/24 03:26:40;;;;;;;2.22;0.68;;;8.30;99.90;;;;;;5014200;28;20049;-81
2021/03/24 03:29:08;;;;;;;3.42;0.90;;;8.30;99.90;;;;;;5014146;28;20060;-79
2021/03/24 03:31:36;;;;;;;3.03;1.33;;;8.30;99.90;;;;;;5014177;28;20061;-80
2021/03/24 03:34:04;;;;;;;2.67;1.48;;;8.30;99.90;;;;;;5014438;28;20420;-81
2021/03/24 03:36:31;;;;;;;9.70;1.35;;;8.30;99.90;;;;;;5014201;28;20046;-81
2021/03/24 03:38:58;;;;;;;7.90;1.27;;;8.20;99.90;;;;;;5014493;28;20053;-80
2021/03/24 03:41:25;;;;;;;6.47;1.20;;;8.20;99.90;;;;;;5014377;28;20053;-80
2021/03/24 03:43:53;;;;;;;5.15;0.90;;;8.20;99.90;;;;;;5014196;28;20053;-81
2021/03/24 03:46:21;;;;;;;3.88;0.88;;;8.20;99.90;;;;;;5014241;28;20053;-84
2021/03/24 03:48:47;;;;;;;2.40;0.85;;;8.20;99.90;;;;;;5014318;28;20053;-84
2021/03/24 03:51:19;;;;;;;4.88;1.20;;;8.20;99.90;;;;;;5014020;28;20079;-80
2021/03/24 03:53:49;;;;;;;7.55;1.10;;;8.20;99.90;;;;;;5013929;28;20103;-80
2021/03/24 03:56:17;;;;;;;5.28;1.00;;;8.20;99.90;;;;;;5014036;28;20054;-80
2021/03/24 03:58:48;;;;;;;3.20;1.23;;;8.20;99.90;;;;;;5017110;28;20103;-80
2021/03/24 04:01:17;;;;;;;3.60;1.40;;;8.20;99.90;;;;;;5017481;28;20069;-80
2021/03/24 04:03:46;;;;;;;4.38;1.00;;;8.10;99.90;;;;;;5017480;28;20148;-80
2021/03/24 04:06:15;;;;;;;5.45;1.38;;;8.10;99.90;;;;;;5017388;28;20064;-86
2021/03/24 04:08:43;;;;;;;6.72;1.10;;;8.10;99.90;;;;;;5017490;28;20045;-88
2021/03/24 04:11:11;;;;;;;2.55;0.98;;;8.10;99.90;;;;;;5017355;28;20510;-84
2021/03/24 04:13:42;;;;;;;7.53;0.98;;;8.10;99.90;;;;;;5017257;28;20486;-85
2021/03/24 04:16:08;;;;;;;4.13;1.38;;;8.10;99.90;;;;;;5017396;28;20053;-85
2021/03/24 04:18:36;;;;;;;6.80;1.23;;;8.10;99.90;;;;;;5016939;28;20054;-87
2021/03/24 04:21:02;;;;;;;7.10;1.13;;;8.00;99.90;;;;;;5017029;28;20056;-85
2021/03/24 04:23:37;;;;;;;2.40;0.88;;;8.00;99.90;;;;;;5016977;28;20463;-85
2021/03/24 04:26:08;;;;;;;4.10;1.10;;;8.00;99.90;;;;;;5017221;28;20054;-84
2021/03/24 04:28:37;;;;;;;3.80;1.13;;;8.00;99.90;;;;;;5017099;28;20046;-86
2021/03/24 04:31:05;;;;;;;3.58;1.00;;;8.00;99.90;;;;;;5016924;28;20050;-85
2021/03/24 04:33:32;;;;;;;3.97;0.95;;;8.00;99.90;;;;;;5016874;28;20061;-84
2021/03/24 04:36:01;;;;;;;8.20;1.17;;;8.00;99.90;;;;;;5010702;28;20053;-83
2021/03/24 04:38:35;;;;;;;3.22;0.82;;;7.90;99.90;;;;;;5015803;28;20046;-80
2021/03/24 04:41:09;;;;;;;3.13;0.80;;;7.90;99.90;;;;;;5016389;28;20177;-80
2021/03/24 04:43:39;;;;;;;4.47;0.80;;;7.90;99.90;;;;;;5016676;28;20061;-80
2021/03/24 04:46:13;;;;;;;3.58;0.80;;;7.90;99.90;;;;;;5017060;28;20057;-80
2021/03/24 04:48:49;;;;;;;5.22;1.02;;;7.90;99.90;;;;;;5016516;28;20045;-80
2021/03/24 04:51:19;;;;;;;5.13;0.88;;;7.90;99.90;;;;;;5016541;28;20077;-80
2021/03/24 04:53:50;;;;;;;9.85;1.50;;;7.90;99.90;;;;;;5016371;28;20053;-80
2021/03/24 04:56:18;;;;;;;5.13;1.00;;;7.90;99.90;;;;;;5016680;28;20053;-80
2021/03/24 04:58:47;;;;;;;9.77;1.20;;;7.90;99.90;;;;;;5015894;28;20056;-80
2021/03/24 05:01:18;;;;;;;2.65;0.60;;;7.90;99.90;;;;;;5015306;28;20045;-81
2021/03/24 05:03:46;;;;;;;2.38;0.65;;;7.80;99.90;;;;;;5016375;28;20064;-81
2021/03/24 05:06:18;;;;;;;7.35;1.30;;;7.80;99.90;;;;;;5016210;28;20060;-80
2021/03/24 05:08:47;;;;;;;1.65;0.68;;;7.80;99.90;;;;;;5015822;28;20505;-80
2021/03/24 05:11:18;;;;;;;1.95;0.60;;;7.70;99.90;;;;;;5016436;28;20050;-81
2021/03/24 05:13:51;;;;;;;2.17;1.02;;;7.80;99.90;;;;;;5016079;28;20145;-80
2021/03/24 05:16:22;;;;;;;4.65;0.73;;;7.70;99.90;;;;;;5016274;28;20425;-79
2021/03/24 05:18:52;;;;;;;6.05;1.60;;;7.70;99.90;;;;;;5015870;28;20414;-80
2021/03/24 05:21:34;;;;;;;8.38;0.82;;;7.70;99.90;;;;;;5016075;28;20050;-80
2021/03/24 05:24:03;;;;;;;5.80;0.90;;;7.70;99.90;;;;;;5015818;28;20060;-79
2021/03/24 05:26:32;;;;;;;6.38;0.95;;;7.70;99.90;;;;;;5015738;28;20054;-80
2021/03/24 05:29:02;;;;;;;4.45;0.90;;;7.70;99.90;;;;;;5015754;28;20042;-79
2021/03/24 05:31:33;;;;;;;4.88;0.88;;;7.70;99.90;;;;;;5015855;28;20050;-80
2021/03/24 05:34:02;;;;;;;5.50;1.05;;;7.70;99.90;;;;;;5015672;28;20120;-79
2021/03/24 05:36:33;;;;;;;8.27;1.00;;;7.70;99.90;;;;;;5015318;28;20459;-80
2021/03/24 05:39:10;;;;;;;4.68;0.90;;;7.70;99.90;;;;;;5015888;28;20056;-80
2021/03/24 05:41:41;;;;;;;4.82;0.95;;;7.70;99.90;;;;;;5015464;28;20054;-80
2021/03/24 05:44:41;;;;;;;8.75;1.05;;;7.70;99.90;;;;;;5015573;28;20501;-79
2021/03/24 05:47:43;;;;;;;5.72;0.90;;;7.70;99.90;;;;;;5015054;28;20045;-81
2021/03/24 05:50:43;;;;;;;6.95;1.20;;;7.70;99.90;;;;;;5014339;28;20128;-80
2021/03/24 05:53:22;;;;;;;6.03;1.00;;;7.60;99.90;;;;;;5015143;28;20058;-80
2021/03/24 05:55:52;;;;;;;6.50;1.15;;;7.70;99.90;;;;;;5014978;28;20140;-80
2021/03/24 05:58:40;;;;;;;15.25;1.50;;;7.60;99.90;;;;;;5015175;28;20478;-80
2021/03/24 06:01:11;;;;;;;4.57;1.10;;;7.60;99.90;;;;;;5015407;28;20080;-80
2021/03/24 06:04:06;;;;;;;6.68;1.00;;;7.60;99.90;;;;;;5015373;28;20060;-81
2021/03/24 06:07:11;;;;;;;4.68;1.40;;;7.60;99.90;;;;;;5014570;28;20129;-81
2021/03/24 06:10:15;;;;;;;6.50;0.70;;;7.60;99.90;;;;;;5015165;28;20554;-80
2021/03/24 06:13:12;;;;;;;5.43;1.50;;;7.50;99.90;;;;;;4995043;28;20046;-80
2021/03/24 06:16:02;;;;;;;6.43;1.35;;;7.60;99.90;;;;;;5015235;28;20054;-80
2021/03/24 06:19:15;;;;;;;3.15;1.10;;;7.50;99.90;;;;;;5014822;28;20548;-80
2021/03/24 06:21:53;;;;;;;5.05;1.17;;;7.60;99.90;;;;;;4996056;28;20104;-80
2021/03/24 06:24:32;;;;;;;8.95;1.58;;;7.50;99.90;;;;;;5015118;28;20072;-80
2021/03/24 06:27:49;;;;;;;5.85;1.42;;;7.60;99.90;;;;;;5010867;28;20532;-80
2021/03/24 06:30:50;;;;;;;8.23;1.90;;;7.60;99.90;;;;;;5014880;28;20064;-80
2021/03/24 06:34:11;;;;;;;4.38;1.73;;;7.60;99.90;;;;;;5014848;28;20061;-81
2021/03/24 06:36:52;;;;;;;4.53;1.02;;;7.60;99.90;;;;;;4916035;29;20052;-81
2021/03/24 06:39:36;;;;;;;4.68;1.50;;;7.60;99.90;;;;;;4918078;29;20052;-84
2021/03/24 06:42:26;;;;;;;8.73;1.70;;;7.60;99.90;;;;;;4930252;29;20505;-85
2021/03/24 06:45:26;;;;;;;6.22;1.80;;;7.60;99.90;;;;;;4923461;29;20048;-81
2021/03/24 06:47:56;;;;;;;5.15;2.45;;;7.60;99.90;;;;;;4859424;29;20402;-81
2021/03/24 06:50:33;;;;;;;8.43;1.30;;;7.60;99.90;;;;;;4859315;29;20063;-79
2021/03/24 06:53:34;;;;;;;5.78;1.42;;;7.70;99.90;;;;;;4859124;29;20054;-78
2021/03/24 06:56:30;;;;;;;9.32;2.10;;;7.60;99.90;;;;;;4846649;29;20060;-78
2021/03/24 06:59:18;;;;;;;8.77;1.90;;;7.70;99.90;;;;;;4858881;29;20054;-80
2021/03/24 07:01:49;;;;;;;5.15;1.65;;;7.70;99.90;;;;;;4857981;29;20057;-79
2021/03/24 07:04:43;;;;;;;10.52;1.67;;;7.70;99.90;;;;;;4858951;29;20117;-80
2021/03/24 07:07:23;;;;;;;9.07;1.75;;;7.80;99.90;;;;;;4855752;29;20499;-79
2021/03/24 07:09:56;;;;;;;7.88;1.65;;;7.80;99.90;;;;;;4870361;29;20056;-79
2021/03/24 07:12:27;;;;;;;6.68;2.80;;;7.80;99.90;;;;;;4909157;28;20061;-82
2021/03/24 07:15:20;;;;;;;15.20;2.13;;;7.70;99.90;;;;;;4960950;28;20572;-79
2021/03/24 07:18:22;;;;;;;6.65;2.40;;;7.90;99.90;;;;;;4959737;28;20112;-82
2021/03/24 07:21:26;;;;;;;8.00;1.70;;;7.90;99.90;;;;;;4960916;28;20051;-82
2021/03/24 07:24:26;;;;;;;8.65;2.20;;;7.90;99.90;;;;;;4993157;28;20077;-82
2021/03/24 07:27:06;;;;;;;8.02;2.03;;;8.00;99.90;;;;;;5012764;28;20060;-81
2021/03/24 07:29:49;;;;;;;7.60;1.77;;;8.00;99.90;;;;;;5013097;28;20053;-81
2021/03/24 07:32:18;;;;;;;11.90;2.00;;;8.00;99.90;;;;;;5011095;28;20493;-80
2021/03/24 07:35:09;;;;;;;6.90;2.30;;;8.10;99.90;;;;;;5016949;28;20459;-86
2021/03/24 07:38:00;;;;;;;8.70;2.65;;;8.10;99.90;;;;;;5014290;28;20675;-87
2021/03/24 07:40:44;;;;;;;3.90;2.63;;;8.10;99.90;;;;;;5016309;28;20050;-90
2021/03/24 07:43:19;;;;;;;11.65;3.70;;;10.90;99.90;;;;;;5016749;28;20046;-89
2021/03/24 07:46:13;;;;;;;11.15;2.92;;;8.20;99.90;;;;;;5018299;28;20481;-90
2021/03/24 07:49:05;;;;;;;8.73;2.50;;;8.30;99.90;;;;;;5008481;28;20054;-90
2021/03/24 07:51:56;;;;;;;8.38;2.92;;;8.30;99.90;;;;;;5018919;28;20058;-91
2021/03/24 07:54:26;;;;;;;10.75;2.80;;;8.40;99.90;;;;;;5038111;28;20458;-91
2021/03/24 07:56:55;;;;;;;10.80;2.25;;;8.40;99.90;;;;;;5038164;28;20151;-90
2021/03/24 07:59:34;;;;;;;8.10;2.72;;;8.50;99.90;;;;;;5038147;28;20114;-91
2021/03/24 08:02:33;;;;;;;7.68;2.85;;;8.60;99.90;;;;;;5037765;28;20061;-91
2021/03/24 08:05:18;;;;;;;9.93;2.58;;;8.70;99.90;;;;;;5021346;28;20054;-91
2021/03/24 08:07:47;;;;;;;;;;;8.80;99.90;;;;;;5038830;28;20049;-92
2021/03/24 08:10:36;;;;;;;8.32;2.85;;;8.90;99.90;;;;;;5037933;28;19931;-92
2021/03/24 08:13:30;;;;;;;7.40;2.42;;;9.10;99.90;;;;;;5023972;28;20068;-92
2021/03/24 08:16:23;;;;;;;7.40;1.92;;;9.20;99.90;;;;;;5018140;28;20050;-93
2021/03/24 08:18:54;;;;;;;7.47;1.95;;;9.20;99.90;;;;;;5017782;28;20356;-92
2021/03/24 08:21:24;;;;;;;9.38;1.92;;;9.20;99.90;;;;;;5017885;28;20112;-93
2021/03/24 08:24:08;;;;;;;13.15;2.00;;;9.20;99.90;;;;;;5037261;28;20053;-93
2021/03/24 08:26:39;;;;;;;12.13;3.67;;;9.20;99.90;;;;;;5037869;28;20060;-93
2021/03/24 08:29:08;;;;;;;8.48;3.58;;;;;;;;;;5038147;28;20059;-93
2021/03/24 08:32:22;;;;;;;5.72;3.40;;;9.20;99.90;;;;;;5037559;28;20049;-93
2021/03/24 08:35:22;;;;;;;8.55;2.38;;;9.30;99.90;;;;;;5029201;28;20057;-93
2021/03/24 08:37:57;;;;;;;9.20;2.25;;;9.30;99.90;;;;;;5011355;28;20466;-93
2021/03/24 08:40:41;;;;;;;17.10;2.28;;;9.20;99.90;;;;;;5021483;28;20069;-91
2021/03/24 08:43:24;;;;;;;13.48;2.70;;;9.20;99.90;;;;;;5017307;28;20068;-90
2021/03/24 08:45:52;;;;;;;6.88;1.70;;;9.20;99.90;;;;;;5016942;28;20068;-91
2021/03/24 08:48:25;;;;;;;14.45;2.65;;;9.20;99.90;;;;;;5017402;28;20046;-91
2021/03/24 08:50:55;;;;;;;5.78;1.30;;;9.20;99.90;;;;;;5017543;28;20053;-91
2021/03/24 08:53:24;;;;;;;11.82;2.05;;;9.20;99.90;;;;;;5017106;28;20184;-92
2021/03/24 08:55:54;;;;;;;10.30;1.90;;;9.20;99.90;;;;;;5017318;28;20050;-89
2021/03/24 08:58:24;;;;;;;11.10;3.22;;;9.10;99.90;;;;;;5017102;28;20099;-91
2021/03/24 09:01:18;;;;;;;10.88;1.52;;;9.10;99.90;;;;;;5017206;28;20054;-91
2021/03/24 09:04:06;;;;;;;6.30;2.92;;;9.00;99.90;;;;;;5016906;28;20378;-90
2021/03/24 09:06:38;;;;;;;6.50;1.60;;;9.00;99.90;;;;;;5016839;28;20562;-90
2021/03/24 09:09:12;;;;;;;6.50;1.92;;;9.00;99.90;;;;;;5016832;28;20115;-90
2021/03/24 09:11:42;;;;;;;5.03;1.90;;;9.00;99.90;;;;;;5017120;28;20128;-91
2021/03/24 09:14:14;;;;;;;7.93;1.77;;;9.00;99.90;;;;;;5017014;28;20390;-90
2021/03/24 09:17:32;;;;;;;14.35;3.35;;;9.00;99.90;;;;;;5016806;28;20054;-89
2021/03/24 09:20:46;;;;;;;12.15;2.17;;;9.10;99.90;;;;;;5013978;28;20046;-90
2021/03/24 09:23:54;;;;;;;7.05;1.50;;;9.10;99.90;;;;;;5016476;28;20643;-90
2021/03/24 09:26:59;;;;;;;6.10;1.40;;;9.10;99.90;;;;;;5016732;28;20060;-90
2021/03/24 09:29:40;;;;;;;5.43;0.95;;;9.20;99.90;;;;;;4975773;28;20055;-90
2021/03/24 09:32:19;;;;;;;10.30;1.83;;;9.20;99.90;;;;;;4975729;28;20086;-89
2021/03/24 09:34:52;;;;;;;7.65;0.90;;;9.20;99.90;;;;;;4975778;28;20051;-89
2021/03/24 09:37:21;;;;;;;8.25;1.38;;;9.30;99.90;;;;;;4975564;28;20116;-90
2021/03/24 09:39:50;;;;;;;5.15;1.40;;;9.30;99.90;;;;;;4975648;28;20054;-89
2021/03/24 09:42:19;;;;;;;6.60;2.53;;;9.40;99.90;;;;;;4975684;28;20051;-90
2021/03/24 09:44:48;;;;;;;7.95;2.22;;;9.50;99.90;;;;;;4975559;28;20093;-89
2021/03/24 09:47:29;;;;;;;10.63;2.45;;;9.50;99.90;;;;;;4975537;28;20117;-90
2021/03/24 09:49:59;;;;;;;5.65;1.50;;;9.60;99.90;;;;;;4975403;28;20046;-90
2021/03/24 09:52:28;;;;;;;7.78;1.75;;;9.50;99.90;;;;;;4975549;28;20058;-91
2021/03/24 09:55:24;;;;;;;5.93;1.40;;;9.60;99.90;;;;;;4975124;28;20054;-91
2021/03/24 09:58:27;;;;;;;7.30;1.25;;;9.70;99.90;;;;;;4975482;28;20051;-90
2021/03/24 10:01:06;;;;;;;14.02;1.13;;;;;;;;;;4975498;28;20066;-90
2021/03/24 10:03:45;;;;;;;5.93;1.30;;;9.70;99.90;;;;;;4999556;28;20481;-91
2021/03/24 10:06:21;;;;;;;5.93;0.95;;;9.70;99.90;;;;;;5016083;28;20421;-91
2021/03/24 10:08:51;;;;;;;7.05;1.23;;;9.70;99.90;;;;;;5016131;28;20049;-91
2021/03/24 10:11:22;;;;;;;3.95;0.98;;;9.90;99.90;;;;;;5015880;28;20522;-91
2021/03/24 10:13:51;;;;;;;3.03;0.93;;;;;;;;;;5016138;28;20046;-91
2021/03/24 10:16:21;;;;;;;6.85;1.30;;;10.00;99.90;;;;;;5015635;28;20049;-91
2021/03/24 10:18:52;;;;;;;2.92;0.80;;;10.20;99.90;;;;;;5015861;28;20094;-91
2021/03/24 10:21:20;;;;;;;4.28;0.90;;;10.20;99.90;;;;;;5015826;28;20064;-92
2021/03/24 10:23:49;;;;;;;5.75;1.15;;;10.20;99.90;;;;;;5015586;28;20546;-92
2021/03/24 10:26:17;;;;;;;3.85;0.77;;;10.40;99.90;;;;;;5015983;28;20068;-91
2021/03/24 10:28:52;;;;;;;5.72;1.02;;;10.50;99.90;;;;;;5015588;28;20052;-91
2021/03/24 10:31:22;;;;;;;7.70;0.98;;;10.60;99.90;;;;;;5015731;28;20116;-91
2021/03/24 10:33:50;;;;;;;5.05;1.20;;;;;;;;;;5015835;28;20115;-91
2021/03/24 10:36:20;;;;;;;5.10;0.82;;;10.60;99.90;;;;;;5015678;28;20050;-92
2021/03/24 10:38:48;;;;;;;4.53;1.17;;;;;;;;;;5015573;28;20046;-92
2021/03/24 10:41:31;;;;;;;8.05;1.42;;;10.80;99.90;;;;;;5015520;28;20057;-90
2021/03/24 10:44:05;;;;;;;8.07;0.70;;;10.80;99.90;;;;;;5014424;28;20103;-91
2021/03/24 10:46:35;;;;;;;3.92;0.63;;;10.90;99.90;;;;;;5015534;28;20133;-90
2021/03/24 10:49:03;;;;;;;3.53;1.02;;;10.90;99.90;;;;;;5015560;28;20045;-91
2021/03/24 10:51:47;;;;;;;11.02;1.73;;;10.80;99.90;;;;;;5015186;28;20046;-91
2021/03/24 10:54:17;;;;;;;3.88;0.55;;;10.90;99.90;;;;;;5014960;28;20059;-92
2021/03/24 10:56:50;;;;;;;7.63;0.88;;;10.90;99.90;;;;;;5015574;28;20367;-92
2021/03/24 10:59:22;;;;;;;10.27;0.80;;;11.10;99.90;;;;;;5015149;28;20053;-91
2021/03/24 11:01:51;;;;;;;6.63;1.42;;;11.30;99.90;;;;;;5015247;28;20365;-91
2021/03/24 11:04:19;;;;;;;4.40;0.90;;;;;;;;;;5015183;28;20111;-91
2021/03/24 11:06:52;;;;;;;3.40;0.88;;;11.20;99.90;;;;;;5015383;28;20050;-91
2021/03/24 11:09:21;;;;;;;9.05;0.95;;;11.10;99.90;;;;;;5019313;28;20471;-91
2021/03/24 11:11:48;;;;;;;5.72;0.55;;;;;;;;;;5019315;28;20088;-91
2021/03/24 11:14:16;;;;;;;7.53;1.15;;;;;;;;;;5019163;28;20456;-91
2021/03/24 11:16:45;;;;;;;6.13;1.73;;;11.10;99.90;;;;;;5019315;28;20081;-92
2021/03/24 11:19:17;;;;;;;5.95;2.35;;;11.20;99.90;;;;;;5019163;28;20049;-92
2021/03/24 11:21:51;;;;;;;5.07;1.02;;;11.30;99.90;;;;;;5019022;28;20078;-91
2021/03/24 11:24:21;;;;;;;6.05;1.30;;;11.30;99.90;;;;;;5019066;28;20064;-91
2021/03/24 11:27:06;;;;;;;11.40;1.38;;;11.30;99.90;;;;;;5019270;28;20068;-92
2021/03/24 11:29:34;;;;;;;4.07;0.70;;;11.20;99.90;;;;;;5015771;28;20054;-92
2021/03/24 11:32:03;;;;;;;7.72;0.90;;;;;;;;;;5019116;28;20386;-92
2021/03/24 11:34:33;;;;;;;4.07;1.35;;;11.20;99.90;;;;;;5019228;28;20058;-92
2021/03/24 11:37:01;;;;;;;5.07;1.08;;;11.20;99.90;;;;;;5018918;28;20062;-92
2021/03/24 11:39:29;;;;;;;8.07;2.55;;;;;;;;;;5018794;28;20137;-92
2021/03/24 11:42:07;;;;;;;7.15;1.52;;;;;;;;;;5019053;28;20385;-93
2021/03/24 11:44:34;;;;;;;8.82;0.80;;;;;;;;;;5018884;28;20061;-92
2021/03/24 11:47:04;;;;;;;5.88;0.98;;;11.30;99.90;;;;;;5018829;28;20058;-92
2021/03/24 11:49:34;;;;;;;6.60;0.95;;;11.30;99.90;;;;;;5019199;28;20046;-91
2021/03/24 11:52:12;;;;;;;6.18;1.00;;;11.20;99.90;;;;;;5018867;28;20111;-92
2021/03/24 11:54:42;;;;;;;4.78;0.55;;;11.20;99.90;;;;;;5018594;28;20049;-91
2021/03/24 11:57:44;;;;;;;10.10;1.25;;;11.30;99.90;;;;;;5018401;28;20488;-92
2021/03/24 12:00:25;;;;;;;4.40;0.60;;;11.30;99.90;;;;;;5018650;28;20054;-93
2021/03/24 12:03:04;;;;;;;8.02;1.13;;;11.60;99.90;;;;;;5018487;28;20351;-92
2021/03/24 12:05:32;;;;;;;4.78;1.45;;;;;;;;;;5018453;28;20474;-92
2021/03/24 12:08:14;;;;;;;5.60;1.00;;;11.70;99.90;;;;;;5018950;28;20119;-93
2021/03/24 12:10:42;;;;;;;4.70;0.77;;;;;;;;;;5018593;28;20053;-93
2021/03/24 12:13:14;;;;;;;4.05;0.75;;;11.80;99.90;;;;;;5016797;28;20149;-93
2021/03/24 12:15:43;;;;;;;4.43;1.00;;;11.80;99.90;;;;;;5017022;28;20046;-92
2021/03/24 12:18:13;;;;;;;5.05;1.35;;;11.90;99.90;;;;;;5016189;28;20065;-93
2021/03/24 12:20:47;;;;;;;4.43;1.00;;;;;;;;;;5017159;28;20049;-93
2021/03/24 12:23:14;;;;;;;7.05;1.20;;;;;;;;;;5016921;28;20050;-92
2021/03/24 12:25:44;;;;;;;5.40;0.80;;;;;;;;;;5017512;28;20054;-92
2021/03/24 12:28:11;;;;;;;4.55;0.88;;;11.60;99.90;;;;;;5018024;28;20057;-93
2021/03/24 12:30:43;;;;;;;4.60;1.40;;;11.60;99.90;;;;;;5017603;28;20046;-92
2021/03/24 12:33:24;;;;;;;9.68;1.83;;;11.70;99.90;;;;;;5017991;28;20065;-92
2021/03/24 12:36:02;;;;;;;4.85;1.45;;;11.60;99.90;;;;;;5017932;28;20123;-92
2021/03/24 12:38:29;;;;;;;7.88;0.98;;;;;;;;;;5017898;28;20116;-92
2021/03/24 12:40:57;;;;;;;5.28;1.23;;;;;;;;;;5017592;28;20042;-92
2021/03/24 12:43:25;;;;;;;8.23;1.13;;;;;;;;;;5017679;28;20459;-92
2021/03/24 12:45:52;;;;;;;9.25;1.50;;;;;;;;;;5017718;28;20112;-92
2021/03/24 12:48:25;;;;;;;7.63;1.42;;;;;;;;;;5017876;28;20046;-91
2021/03/24 12:50:53;;;;;;;4.70;1.50;;;;;;;;;;5017868;28;20411;-93
2021/03/24 12:53:28;;;;;;;4.50;1.13;;;11.10;99.90;;;;;;5033618;28;20056;-92
2021/03/24 12:56:05;;;;;;;4.88;1.23;;;11.10;99.90;;;;;;5037654;28;20046;-93
2021/03/24 12:58:44;;;;;;;7.60;1.10;;;11.10;99.90;;;;;;5037096;28;20099;-92
2021/03/24 13:01:25;;;;;;;7.80;1.63;;;11.20;99.90;;;;;;5037055;28;20092;-92
2021/03/24 13:04:29;;;;;;;5.05;1.00;;;11.20;99.90;;;;;;5017466;28;20050;-92
2021/03/24 13:07:20;;;;;;;7.72;1.50;;;11.40;99.90;;;;;;5017565;28;20068;-93
2021/03/24 13:09:51;;;;;;;4.80;1.15;;;11.40;99.90;;;;;;5017348;28;20156;-93
2021/03/24 13:12:20;;;;;;;4.93;1.30;;;11.50;99.90;;;;;;5017129;28;20060;-91
2021/03/24 13:14:53;;;;;;;2.03;0.73;;;11.50;99.90;;;;;;5017323;28;20099;-92
2021/03/24 13:17:26;;;;;;;7.85;1.30;;;11.50;99.90;;;;;;5017206;28;20046;-93
2021/03/24 13:20:08;;;;;;;7.28;0.93;;;11.50;99.90;;;;;;5017563;28;20076;-93
2021/03/24 13:22:38;;;;;;;8.93;1.55;;;11.40;99.90;;;;;;5016703;28;20430;-93
2021/03/24 13:25:08;;;;;;;12.40;1.70;;;;;;;;;;5016881;28;20084;-92
2021/03/24 13:27:46;;;;;;;8.95;1.88;;;11.50;99.90;;;;;;5016988;28;20060;-92
2021/03/24 13:30:18;;;;;;;5.85;2.10;;;11.50;99.90;;;;;;5016245;28;20088;-93
2021/03/24 13:32:47;;;;;;;11.63;2.92;;;11.70;99.90;;;;;;5016856;28;20060;-92
2021/03/24 13:35:16;;;;;;;19.58;2.40;;;;;;;;;;5016960;28;20063;-93
2021/03/24 13:37:44;;;;;;;12.70;2.35;;;;;;;;;;5017131;28;20508;-93
2021/03/24 13:40:16;;;;;;;7.25;1.80;;;;;;;;;;5017057;28;20054;-93